Time;durP1;ratioP1;P1;durP2;ratioP2;P2;SDS_P1;SDS_P2;PMS_P1;PMS_P2;Temp;Humidity;BMP_temperature;BMP_pressure;BME280_temperature;BME280_humidity;BME280_pressure;Samples;Min_cycle;Max_cycle;Signal;HPM_P1;HPM_P2
2023/10/10 00:01:03;;;;;;;;;;;;;;;11.59;100.00;101942.56;5115379;28;19922;-51
2023/10/10 00:03:31;;;;;;;;;;;;;;;11.59;100.00;101933.09;5114213;28;20312;-51
2023/10/10 00:05:58;;;;;;;;;;;;;;;11.65;100.00;101943.72;5115133;28;20345;-51
2023/10/10 00:08:30;;;;;;;;;;;;;;;11.65;100.00;101945.41;5114754;28;19911;-51
2023/10/10 00:10:55;;;;;;;;;;;;;;;11.61;100.00;101940.94;5114380;28;20278;-50
2023/10/10 00:13:23;;;;;;;;;;;;;;;11.58;100.00;101936.53;5114765;28;20438;-51
2023/10/10 00:15:55;;;;;;;;;;;;;;;11.57;100.00;101939.94;5114931;28;20409;-51
2023/10/10 00:18:21;;;;;;;;;;;;;;;11.57;100.00;101944.19;5113343;28;19918;-51
2023/10/10 00:21:05;;;;;;;;;;;;;;;11.60;100.00;101958.13;5115134;28;19916;-51
2023/10/10 00:23:33;;;;;;;;;;;;;;;11.59;100.00;101942.56;5113930;28;19998;-51
2023/10/10 00:25:59;;;;;;;;;;;;;;;11.57;100.00;101945.09;5114880;28;19972;-51
2023/10/10 00:28:27;;;;;;;;;;;;;;;11.53;100.00;101951.81;5114472;28;20309;-52
2023/10/10 00:30:53;;;;;;;;;;;;;;;11.50;100.00;101949.13;5113897;28;19912;-52
2023/10/10 00:33:18;;;;;;;;;;;;;;;11.47;100.00;101954.13;5114582;28;19919;-49
2023/10/10 00:35:44;;;;;;;;;;;;;;;11.44;100.00;101947.94;5114568;28;19919;-52
2023/10/10 00:38:20;;;;;;;;;;;;;;;11.45;100.00;101942.88;5113711;28;19912;-51
2023/10/10 00:40:47;;;;;;;;;;;;;;;11.46;100.00;101947.19;5114556;28;19919;-52
2023/10/10 00:43:16;;;;;;;;;;;;;;;11.46;100.00;101946.31;5114083;28;19980;-52
2023/10/10 00:45:42;;;;;;;;;;;;;;;11.42;100.00;101940.13;5113824;28;19996;-52
2023/10/10 00:48:09;;;;;;;;;;;;;;;11.39;100.00;101940.00;5114530;28;19962;-51
2023/10/10 00:50:36;;;;;;;;;;;;;;;11.38;100.00;101938.25;5114273;28;19912;-52
2023/10/10 00:53:04;;;;;;;;;;;;;;;11.36;100.00;101939.84;5113691;28;19916;-51
2023/10/10 00:55:33;;;;;;;;;;;;;;;11.36;100.00;101942.44;5113978;28;19911;-50
2023/10/10 00:57:59;;;;;;;;;;;;;;;11.31;100.00;101936.19;5113980;28;19916;-51
2023/10/10 01:00:29;;;;;;;;;;;;;;;11.26;100.00;101933.44;5113221;28;19965;-51
2023/10/10 01:02:56;;;;;;;;;;;;;;;11.26;100.00;101932.53;5114263;28;19912;-51
2023/10/10 01:05:32;;;;;;;;;;;;;;;11.25;100.00;101925.63;5113888;28;19911;-51
2023/10/10 01:07:59;;;;;;;;;;;;;;;11.24;100.00;101923.84;5113594;28;19922;-50
2023/10/10 01:10:24;;;;;;;;;;;;;;;11.22;100.00;101921.22;5113641;28;19912;-51
2023/10/10 01:12:49;;;;;;;;;;;;;;;11.18;100.00;101915.03;5113168;28;19934;-51
2023/10/10 01:15:16;;;;;;;;;;;;;;;11.13;100.00;101910.44;5113890;28;19912;-49
2023/10/10 01:17:43;;;;;;;;;;;;;;;11.10;100.00;101916.34;5113999;28;19964;-50
2023/10/10 01:20:15;;;;;;;;;;;;;;;11.09;100.00;101917.19;5113202;28;20014;-52
2023/10/10 01:22:46;;;;;;;;;;;;;;;11.08;100.00;101912.84;5114046;28;19950;-52
2023/10/10 01:25:40;;;;;;;;;;;;;;;11.03;100.00;101909.19;5113561;28;19995;-51
2023/10/10 01:28:05;;;;;;;;;;;;;;;10.95;100.00;101905.34;5112767;28;20006;-51
2023/10/10 01:30:43;;;;;;;;;;;;;;;10.91;100.00;101901.78;5112611;28;19954;-51
2023/10/10 01:33:16;;;;;;;;;;;;;;;10.90;100.00;101892.28;5113684;28;20271;-51
2023/10/10 01:35:42;;;;;;;;;;;;;;;10.92;100.00;101882.00;5113120;28;19911;-52
2023/10/10 01:38:13;;;;;;;;;;;;;;;10.94;100.00;101885.56;5113658;28;20248;-52
2023/10/10 01:40:39;;;;;;;;;;;;;;;10.98;100.00;101884.88;5113896;28;20026;-51
2023/10/10 01:43:10;;;;;;;;;;;;;;;11.01;100.00;101885.91;5112931;28;20385;-52
2023/10/10 01:45:41;;;;;;;;;;;;;;;11.03;100.00;101873.06;5113485;28;20006;-51
2023/10/10 01:48:08;;;;;;;;;;;;;;;11.05;100.00;101884.31;5112839;28;20684;-52
2023/10/10 01:50:33;;;;;;;;;;;;;;;11.07;100.00;101874.09;5113512;28;19912;-52
2023/10/10 01:53:00;;;;;;;;;;;;;;;11.09;100.00;101873.34;5113509;28;19911;-51
2023/10/10 01:55:25;;;;;;;;;;;;;;;11.10;100.00;101874.22;5112544;28;19919;-51
2023/10/10 01:57:51;;;;;;;;;;;;;;;11.07;100.00;101869.81;5113029;28;20274;-52
2023/10/10 02:02:52;;;;;;;;;;;;;;;11.01;100.00;101865.25;5112721;28;19947;-52
2023/10/10 02:08:04;;;;;;;;;;;;;;;10.99;100.00;101861.72;5113481;28;19912;-52
2023/10/10 02:10:32;;;;;;;;;;;;;;;10.96;100.00;101855.53;5112285;28;19912;-51
2023/10/10 02:13:04;;;;;;;;;;;;;;;10.93;100.00;101851.13;5113329;28;19915;-48
2023/10/10 02:15:34;;;;;;;;;;;;;;;10.95;100.00;101853.75;5113056;28;20283;-52
2023/10/10 02:18:12;;;;;;;;;;;;;;;10.95;100.00;101851.19;5112362;28;20355;-48
2023/10/10 02:23:33;;;;;;;;;;;;;;;10.94;100.00;101849.44;5112173;28;19912;-51
2023/10/10 02:29:16;;;;;;;;;;;;;;;10.94;100.00;101842.56;5113824;28;19964;-51
2023/10/10 02:31:28;;;;;;;;;;;;;;;10.97;100.00;101836.66;5110553;28;19912;-51
2023/10/10 02:34:03;;;;;;;;;;;;;;;10.98;100.00;101841.03;5113186;28;20414;-51
2023/10/10 02:36:31;;;;;;;;;;;;;;;10.98;100.00;101835.88;5112952;28;19976;-52
2023/10/10 02:39:09;;;;;;;;;;;;;;;10.98;100.00;101833.28;5112447;28;19950;-51
2023/10/10 02:41:48;;;;;;;;;;;;;;;10.95;100.00;101830.56;5114930;28;20373;-51
2023/10/10 02:44:26;;;;;;;;;;;;;;;10.92;100.00;101830.44;5115670;28;19956;-51
2023/10/10 02:46:53;;;;;;;;;;;;;;;10.90;100.00;101827.78;5116922;28;19912;-51
2023/10/10 02:49:22;;;;;;;;;;;;;;;10.86;100.00;101831.94;5116290;28;19934;-51
2023/10/10 02:51:48;;;;;;;;;;;;;;;10.86;100.00;101838.78;5115934;28;19911;-51
2023/10/10 02:56:48;;;;;;;;;;;;;;;10.89;100.00;101832.88;5116613;28;20041;-52
2023/10/10 02:59:17;;;;;;;;;;;;;;;10.90;100.00;101829.47;5115789;28;19920;-52
2023/10/10 03:01:57;;;;;;;;;;;;;;;10.92;100.00;101826.16;5116650;28;19911;-51
2023/10/10 03:07:09;;;;;;;;;;;;;;;10.94;100.00;101831.41;5115919;28;19934;-51
2023/10/10 03:09:42;;;;;;;;;;;;;;;10.90;100.00;101838.09;5116100;28;20359;-52
2023/10/10 03:12:17;;;;;;;;;;;;;;;10.83;100.00;101829.22;5116389;28;19958;-50
2023/10/10 03:14:43;;;;;;;;;;;;;;;10.79;100.00;101836.75;5116331;28;19911;-51
2023/10/10 03:17:31;;;;;;;;;;;;;;;10.75;100.00;101829.69;5116112;28;20009;-51
2023/10/10 03:20:10;;;;;;;;;;;;;;;10.71;100.00;101838.97;5115379;28;19919;-51
2023/10/10 03:23:07;;;;;;;;;;;;;;;10.69;100.00;101835.44;5116299;28;19957;-51
2023/10/10 03:25:23;;;;;;;;;;;;;;;10.68;100.00;101833.69;5115676;28;19908;-51
2023/10/10 03:27:54;;;;;;;;;;;;;;;10.70;100.00;101832.06;5115119;28;19915;-52
2023/10/10 03:30:34;;;;;;;;;;;;;;;10.72;100.00;101825.28;5115921;28;19990;-51
2023/10/10 03:33:29;;;;;;;;;;;;;;;10.75;100.00;101833.13;5116009;28;19911;-52
2023/10/10 03:36:04;;;;;;;;;;;;;;;10.78;100.00;101829.81;5115834;28;19907;-51
2023/10/10 03:39:17;;;;;;;;;;;;;;;10.79;100.00;101835.03;5115428;28;19923;-51
2023/10/10 05:25:12;;;;;;;;;;;;;;;10.71;100.00;101772.81;5114329;28;19914;-51
2023/10/10 05:27:41;;;;;;;;;;;;;;;10.75;100.00;101762.66;5113251;28;19964;-51
2023/10/10 05:30:23;;;;;;;;;;;;;;;10.75;100.00;101766.09;5113742;28;20387;-50
2023/10/10 05:33:04;;;;;;;;;;;;;;;10.79;100.00;101762.84;5113669;28;19923;-52
2023/10/10 05:35:30;;;;;;;;;;;;;;;10.86;100.00;101761.44;5113328;28;20298;-51
2023/10/10 05:37:55;;;;;;;;;;;;;;;10.91;100.00;101759.03;5113513;28;19918;-51
2023/10/10 05:40:21;;;;;;;;;;;;;;;10.97;100.00;101759.28;5112631;28;19994;-52
2023/10/10 05:42:46;;;;;;;;;;;;;;;11.02;100.00;101755.22;5113804;28;19922;-51
2023/10/10 05:45:13;;;;;;;;;;;;;;;11.06;100.00;101759.69;5113267;28;19914;-50
2023/10/10 05:47:39;;;;;;;;;;;;;;;11.10;100.00;101761.56;5112981;28;19915;-51
2023/10/10 05:50:05;;;;;;;;;;;;;;;11.13;100.00;101755.66;5113753;28;20377;-49
2023/10/10 05:52:30;;;;;;;;;;;;;;;11.14;100.00;101760.91;5112978;28;19911;-49
2023/10/10 05:54:55;;;;;;;;;;;;;;;11.15;100.00;101760.06;5112794;28;20405;-51
2023/10/10 05:57:20;;;;;;;;;;;;;;;11.17;100.00;101758.44;5113005;28;20367;-51
2023/10/10 05:59:46;;;;;;;;;;;;;;;11.18;100.00;101760.22;5113537;28;19912;-52
2023/10/10 06:02:11;;;;;;;;;;;;;;;11.22;100.00;101762.91;5112345;28;19965;-49
2023/10/10 06:04:36;;;;;;;;;;;;;;;11.23;100.00;101750.06;5113540;28;19907;-51
2023/10/10 06:07:03;;;;;;;;;;;;;;;11.26;100.00;101754.47;5113475;28;19915;-51
2023/10/10 06:09:33;;;;;;;;;;;;;;;11.27;100.00;101757.13;5112460;28;19922;-51
2023/10/10 06:12:04;;;;;;;;;;;;;;;11.29;100.00;101757.19;5113434;28;19911;-51
2023/10/10 06:14:31;;;;;;;;;;;;;;;11.31;100.00;101760.69;5113130;28;20631;-51
2023/10/10 06:16:56;;;;;;;;;;;;;;;11.31;100.00;101755.53;5115317;28;20350;-52
2023/10/10 06:19:21;;;;;;;;;;;;;;;11.31;100.00;101750.38;5116806;28;19958;-50
2023/10/10 06:21:47;;;;;;;;;;;;;;;11.32;100.00;101747.88;5117415;28;19943;-51
2023/10/10 06:24:12;;;;;;;;;;;;;;;11.33;100.00;101756.50;5116130;28;19911;-51
2023/10/10 06:26:45;;;;;;;;;;;;;;;11.33;100.00;101748.75;5117232;28;19912;-51
2023/10/10 06:29:12;;;;;;;;;;;;;;;11.35;100.00;101758.31;5116145;28;19916;-49
2023/10/10 06:31:42;;;;;;;;;;;;;;;11.36;100.00;101752.34;5117318;28;20252;-51
2023/10/10 06:34:19;;;;;;;;;;;;;;;11.38;100.00;101756.69;5117275;28;19919;-52
2023/10/10 06:36:47;;;;;;;;;;;;;;;11.38;100.00;101748.94;5116229;28;19918;-51
2023/10/10 06:41:48;;;;;;;;;;;;;;;11.41;100.00;101749.94;5116830;28;19919;-51
2023/10/10 06:44:13;;;;;;;;;;;;;;;11.42;100.00;101741.38;5115742;28;19912;-51
2023/10/10 06:46:46;;;;;;;;;;;;;;;11.45;100.00;101746.69;5116998;28;19911;-49
2023/10/10 06:49:12;;;;;;;;;;;;;;;11.48;100.00;101744.22;5116568;28;19959;-51
2023/10/10 06:51:40;;;;;;;;;;;;;;;11.49;100.00;101745.97;5115809;28;19939;-51
2023/10/10 06:54:08;;;;;;;;;;;;;;;11.52;100.00;101748.66;5116562;28;19935;-51
2023/10/10 06:56:53;;;;;;;;;;;;;;;11.55;100.00;101749.63;5116358;28;19912;-51
2023/10/10 06:59:25;;;;;;;;;;;;;;;11.58;100.00;101749.72;5115353;28;19964;-50
2023/10/10 07:01:50;;;;;;;;;;;;;;;11.60;100.00;101743.81;5116391;28;20323;-52
2023/10/10 07:04:16;;;;;;;;;;;;;;;11.63;100.00;101743.06;5115972;28;20453;-49
2023/10/10 07:06:44;;;;;;;;;;;;;;;11.66;100.00;101744.06;5116112;28;19911;-52
2023/10/10 07:09:29;;;;;;;;;;;;;;;11.69;100.00;101743.31;5116431;28;19911;-51
2023/10/10 07:12:09;;;;;;;;;;;;;;;11.73;100.00;101745.19;5115450;28;20295;-53
2023/10/10 07:14:40;;;;;;;;;;;;;;;11.79;100.00;101742.84;5115961;28;20371;-50
2023/10/10 07:17:11;;;;;;;;;;;;;;;11.85;100.00;101742.19;5115975;28;19912;-49
2023/10/10 07:19:54;;;;;;;;;;;;;;;11.92;100.00;101740.75;5115358;28;20371;-52
2023/10/10 07:22:21;;;;;;;;;;;;;;;11.99;100.00;101735.00;5115791;28;19919;-51
2023/10/10 07:24:47;;;;;;;;;;;;;;;12.02;100.00;101729.97;5115908;28;20325;-50
2023/10/10 07:27:12;;;;;;;;;;;;;;;12.08;100.00;101735.34;5113415;28;20355;-50
2023/10/10 07:32:17;;;;;;;;;;;;;;;12.21;100.00;101739.28;5116194;28;19916;-51
2023/10/10 07:34:52;;;;;;;;;;;;;;;12.28;100.00;101740.41;5115099;28;20369;-51
2023/10/10 07:37:17;;;;;;;;;;;;;;;12.34;100.00;101733.75;5115455;28;20369;-51
2023/10/10 07:39:55;;;;;;;;;;;;;;;12.39;100.00;101733.03;5114860;28;19911;-51
2023/10/10 07:42:27;;;;;;;;;;;;;;;12.44;100.00;101732.38;5115560;28;19912;-53
2023/10/10 07:44:59;;;;;;;;;;;;;;;12.46;100.00;101722.97;5115572;28;19911;-52
2023/10/10 07:47:27;;;;;;;;;;;;;;;12.51;100.00;101724.00;5114402;28;20355;-51
2023/10/10 07:49:56;;;;;;;;;;;;;;;12.54;100.00;101725.81;5115663;28;19911;-51
2023/10/10 07:52:22;;;;;;;;;;;;;;;12.58;100.00;101725.09;5115243;28;20363;-51
2023/10/10 07:54:51;;;;;;;;;;;;;;;12.64;100.00;101734.78;5114926;28;19958;-52
2023/10/10 07:57:17;;;;;;;;;;;;;;;12.66;100.00;101734.00;5114781;28;19973;-51
2023/10/10 07:59:46;;;;;;;;;;;;;;;12.72;100.00;101735.94;5115678;28;19918;-52
2023/10/10 08:02:31;;;;;;;;;;;;;;;12.80;100.00;101737.06;5114145;28;19919;-51
2023/10/10 08:04:58;;;;;;;;;;;;;;;12.89;100.00;101739.09;5115391;28;19951;-51
2023/10/10 08:07:24;;;;;;;;;;;;;;;12.97;100.00;101735.06;5115288;28;20014;-51
2023/10/10 08:10:11;;;;;;;;;;;;;;;13.03;100.00;101726.66;5114443;28;20406;-51
2023/10/10 08:12:36;;;;;;;;;;;;;;;13.10;100.00;101736.34;5114666;28;19918;-52
2023/10/10 08:15:18;;;;;;;;;;;;;;;13.20;100.00;101736.69;5114129;28;20358;-50
2023/10/10 08:17:51;;;;;;;;;;;;;;;13.26;100.00;101735.19;5114921;28;19918;-52
2023/10/10 08:21:08;;;;;;;;;;;;;;;13.35;100.00;101734.59;5114911;28;19912;-51
2023/10/10 08:23:24;;;;;;;;;;;;;;;13.48;100.00;101738.50;5113802;28;19911;-51
2023/10/10 08:25:49;;;;;;;;;;;;;;;13.56;100.00;101736.16;5114887;28;19998;-51
2023/10/10 08:28:14;;;;;;;;;;;;;;;13.62;100.00;101733.72;5114486;28;19954;-52
2023/10/10 08:30:40;;;;;;;;;;;;;;;13.68;100.00;101730.47;5113995;28;19912;-52
2023/10/10 08:33:05;;;;;;;;;;;;;;;13.74;100.00;101728.06;5114882;28;19912;-51
2023/10/10 08:35:33;;;;;;;;;;;;;;;13.81;100.00;101727.41;5114358;28;19915;-50
2023/10/10 08:37:58;;;;;;;;;;;;;;;13.86;100.00;101731.03;5113591;28;19911;-51
2023/10/10 08:40:26;;;;;;;;;;;;;;;13.94;100.00;101739.03;5113949;28;19911;-52
2023/10/10 08:42:51;;;;;;;;;;;;;;;14.03;100.00;101738.44;5113967;28;19969;-52
2023/10/10 08:45:23;;;;;;;;;;;;;;;14.12;100.00;101734.38;5114154;28;20385;-51
2023/10/10 08:47:58;;;;;;;;;;;;;;;14.22;100.00;101739.84;5114443;28;20372;-49
2023/10/10 08:50:24;;;;;;;;;;;;;;;14.30;100.00;101731.44;5112523;28;19915;-49
2023/10/10 08:52:49;;;;;;;;;;;;;;;14.38;100.00;101735.97;5114221;28;19911;-48
2023/10/10 08:55:17;;;;;;;;;;;;;;;14.45;100.00;101741.38;5114113;28;19911;-47
2023/10/10 08:57:43;;;;;;;;;;;;;;;14.56;100.00;101743.38;5113277;28;20000;-50
2023/10/10 09:00:17;;;;;;;;;;;;;;;14.67;100.00;101739.41;5114302;28;19960;-51
2023/10/10 09:02:43;;;;;;;;;;;;;;;14.75;100.00;101731.84;5114107;28;19991;-48
2023/10/10 09:05:12;;;;;;;;;;;;;;;14.81;100.00;101738.06;5113298;28;19915;-50
2023/10/10 09:07:42;;;;;;;;;;;;;;;14.94;100.00;101739.25;5114053;28;19914;-50
2023/10/10 09:10:13;;;;;;;;;;;;;;;15.12;100.00;101733.66;5114217;28;19918;-50
2023/10/10 09:12:56;;;;;;;;;;;;;;;15.32;100.00;101741.06;5113429;28;20010;-47
2023/10/10 09:15:22;;;;;;;;;;;;;;;15.56;100.00;101735.56;5113642;28;20286;-51
2023/10/10 09:17:48;;;;;;;;;;;;;;;15.77;100.00;101740.38;5113766;28;19912;-50
2023/10/10 09:20:24;;;;;;;;;;;;;;;15.94;100.00;101747.69;5112950;28;19918;-47
2023/10/10 09:23:11;;;;;;;;;;;;;;;16.13;100.00;101743.78;5113888;28;19915;-50
2023/10/10 09:28:21;;;;;;;;;;;;;;;16.71;100.00;101735.38;5113844;28;20262;-49
2023/10/10 09:30:49;;;;;;;;;;;;;;;17.00;100.00;101738.50;5113740;28;20359;-51
2023/10/10 09:35:58;;;;;;;;;;;;;;;17.42;100.00;101740.06;5114042;28;20286;-50
2023/10/10 09:38:26;;;;;;;;;;;;;;;17.70;100.00;101745.72;5113245;28;20287;-50
2023/10/10 09:40:59;;;;;;;;;;;;;;;18.02;100.00;101740.06;5112811;28;20032;-51
2023/10/10 09:43:35;;;;;;;;;;;;;;;18.36;100.00;101745.72;5113545;28;19911;-50
2023/10/10 09:46:11;;;;;;;;;;;;;;;18.52;100.00;101745.91;5113635;28;19912;-49
2023/10/10 09:52:47;;;;;;;;;;;;;;;18.33;100.00;101757.84;5115101;28;19911;-51
2023/10/10 09:54:36;;;;;;;;;;;;;;;18.50;100.00;101750.22;5116966;28;20012;-51
2023/10/10 09:56:54;;;;;;;;;;;;;;;18.83;100.00;101744.47;5114355;28;20257;-52
2023/10/10 09:59:20;;;;;;;;;;;;;;;19.00;100.00;101742.06;5117272;28;20387;-52
2023/10/10 10:01:46;;;;;;;;;;;;;;;19.15;95.57;101740.47;5116920;28;20044;-52
2023/10/10 10:04:18;;;;;;;;;;;;;;;19.37;100.00;101747.59;5117192;28;20366;-51
2023/10/10 10:06:52;;;;;;;;;;;;;;;19.58;90.07;101740.75;5117713;28;19965;-50
2023/10/10 10:09:32;;;;;;;;;;;;;;;19.54;91.12;101747.69;5116498;28;19957;-51
2023/10/10 10:12:30;;;;;;;;;;;;;;;19.61;89.33;101734.66;5117338;28;20394;-52
2023/10/10 10:15:12;;;;;;;;;;;;;;;19.80;89.78;101741.75;5116667;28;20271;-50
2023/10/10 10:17:53;;;;;;;;;;;;;;;20.03;90.89;101739.28;5117226;28;20350;-48
2023/10/10 10:20:23;;;;;;;;;;;;;;;20.09;91.78;101748.94;5116992;28;19994;-51
2023/10/10 10:22:54;;;;;;;;;;;;;;;20.26;91.27;101741.13;5116771;28;19912;-52
2023/10/10 10:25:28;;;;;;;;;;;;;;;20.62;91.50;101735.97;5117121;28;19911;-52
2023/10/10 10:28:00;;;;;;;;;;;;;;;20.91;88.50;101740.44;5117234;28;19933;-52
2023/10/10 10:32:58;;;;;;;;;;;;;;;21.74;88.99;101736.91;5117034;28;19918;-52
2023/10/10 10:35:44;;;;;;;;;;;;;;;22.00;86.82;101735.06;5116073;28;19916;-52
2023/10/10 10:38:09;;;;;;;;;;;;;;;22.16;79.40;101732.38;5116953;28;19916;-52
2023/10/10 10:43:16;;;;;;;;;;;;;;;22.44;82.42;101727.00;5115998;28;20311;-52
2023/10/10 10:45:51;;;;;;;;;;;;;;;22.66;75.87;101718.13;5117097;28;19911;-52
2023/10/10 10:48:33;;;;;;;;;;;;;;;22.89;80.15;101724.94;5116682;28;19911;-49
2023/10/10 10:52:10;;;;;;;;;;;;;;;23.21;79.55;101726.47;5116139;28;19951;-52
2023/10/10 10:54:35;;;;;;;;;;;;;;;23.51;70.41;101729.66;5113484;28;19969;-51
2023/10/10 10:57:02;;;;;;;;;;;;;;;23.55;73.11;101720.00;5115605;28;19912;-52
2023/10/10 10:59:38;;;;;;;;;;;;;;;23.58;62.20;101726.09;5116201;28;19923;-52
2023/10/10 11:02:14;;;;;;;;;;;;;;;23.33;61.58;101731.63;5116080;28;19919;-51
2023/10/10 11:07:07;;;;;;;;;;;;;;;23.29;65.57;101714.13;5116929;28;20041;-51
2023/10/10 11:09:34;;;;;;;;;;;;;;;23.20;62.91;101716.81;5116058;28;19916;-52
2023/10/10 11:12:03;;;;;;;;;;;;;;;23.18;66.96;101718.63;5115463;28;19996;-51
2023/10/10 11:14:29;;;;;;;;;;;;;;;23.39;65.46;101709.63;5115924;28;19918;-52
2023/10/10 11:16:58;;;;;;;;;;;;;;;23.62;67.68;101700.63;5116358;28;19911;-52
2023/10/10 11:21:56;;;;;;;;;;;;;;;23.73;62.64;101703.13;5116010;28;19968;-52
2023/10/10 11:24:26;;;;;;;;;;;;;;;23.80;66.89;101699.56;5115868;28;19932;-52
2023/10/10 11:29:42;;;;;;;;;;;;;;;24.23;61.01;101699.00;5115879;28;19916;-52
2023/10/10 11:32:08;;;;;;;;;;;;;;;24.21;55.82;101694.66;5115090;28;19908;-52
2023/10/10 11:34:43;;;;;;;;;;;;;;;24.11;57.16;101688.66;5115749;28;20252;-52
2023/10/10 11:37:12;;;;;;;;;;;;;;;24.22;56.14;101694.66;5115835;28;20270;-51
2023/10/10 11:39:46;;;;;;;;;;;;;;;24.10;53.89;101692.19;5114949;28;19911;-52
2023/10/10 11:42:13;;;;;;;;;;;;;;;24.05;57.77;101680.84;5115538;28;19915;-52
2023/10/10 11:44:41;;;;;;;;;;;;;;;24.10;58.05;101679.88;5115570;28;20382;-52
2023/10/10 11:47:08;;;;;;;;;;;;;;;24.24;54.55;101674.41;5114872;28;19953;-52
2023/10/10 11:49:33;;;;;;;;;;;;;;;24.25;54.98;101670.03;5115231;28;19912;-52
2023/10/10 11:51:59;;;;;;;;;;;;;;;24.25;58.24;101672.66;5115373;28;20089;-51
2023/10/10 11:54:25;;;;;;;;;;;;;;;24.41;57.73;101670.66;5114455;28;19942;-52
2023/10/10 11:56:51;;;;;;;;;;;;;;;24.54;54.94;101661.66;5115405;28;20003;-52
2023/10/10 11:59:17;;;;;;;;;;;;;;;24.64;57.90;101668.56;5114999;28;19915;-52
2023/10/10 12:01:54;;;;;;;;;;;;;;;24.70;53.31;101662.34;5114564;28;19912;-52
2023/10/10 12:04:32;;;;;;;;;;;;;;;24.76;53.95;101666.63;5114986;28;20431;-52
2023/10/10 12:06:59;;;;;;;;;;;;;;;24.88;56.28;101671.72;5114351;28;20400;-51
2023/10/10 12:09:26;;;;;;;;;;;;;;;24.94;51.07;101661.03;5115063;28;19911;-53
2023/10/10 12:11:58;;;;;;;;;;;;;;;25.00;55.53;101662.72;5115254;28;19982;-51
2023/10/10 12:14:24;;;;;;;;;;;;;;;25.07;50.08;101666.94;5113160;28;20289;-52
2023/10/10 12:16:52;;;;;;;;;;;;;;;25.03;53.01;101662.63;5114829;28;20410;-52
2023/10/10 12:19:18;;;;;;;;;;;;;;;24.96;52.61;101655.75;5114542;28;19976;-52
2023/10/10 12:21:44;;;;;;;;;;;;;;;24.97;52.39;101666.25;5114321;28;19912;-52
2023/10/10 12:24:09;;;;;;;;;;;;;;;24.84;51.46;101653.31;5114982;28;20298;-52
2023/10/10 12:26:39;;;;;;;;;;;;;;;24.84;51.62;101648.91;5114611;28;19934;-51
2023/10/10 12:29:04;;;;;;;;;;;;;;;24.77;48.98;101648.16;5114207;28;19907;-52
2023/10/10 12:31:33;;;;;;;;;;;;;;;24.68;53.13;101645.66;5114493;28;20728;-52
2023/10/10 12:34:00;;;;;;;;;;;;;;;24.79;53.29;101637.56;5113650;28;19963;-52
2023/10/10 12:36:32;;;;;;;;;;;;;;;24.85;49.72;101637.47;5113587;28;20072;-52
2023/10/10 12:38:59;;;;;;;;;;;;;;;24.96;53.56;101630.25;5114712;28;19911;-52
2023/10/10 12:41:24;;;;;;;;;;;;;;;25.13;50.30;101623.78;5114297;28;19908;-52
2023/10/10 12:43:50;;;;;;;;;;;;;;;25.11;49.57;101629.09;5113708;28;20300;-51
2023/10/10 12:46:17;;;;;;;;;;;;;;;25.25;53.56;101623.53;5114089;28;19919;-53
2023/10/10 12:48:46;;;;;;;;;;;;;;;25.54;51.74;101627.41;5114538;28;19915;-52
2023/10/10 12:51:12;;;;;;;;;;;;;;;25.80;50.75;101632.13;5113141;28;20006;-52
2023/10/10 12:53:42;;;;;;;;;;;;;;;25.96;51.12;101621.22;5114326;28;19908;-51
2023/10/10 12:56:16;;;;;;;;;;;;;;;26.06;45.07;101627.22;5113824;28;19911;-52
2023/10/10 12:58:51;;;;;;;;;;;;;;;25.96;46.19;101626.50;5114013;28;20006;-52
2023/10/10 13:01:22;;;;;;;;;;;;;;;25.95;48.82;101625.66;5114132;28;20006;-52
2023/10/10 13:03:48;;;;;;;;;;;;;;;26.01;45.55;101618.50;5113455;28;19911;-52
2023/10/10 13:06:14;;;;;;;;;;;;;;;26.11;46.91;101625.34;5113851;28;19911;-52
2023/10/10 13:08:46;;;;;;;;;;;;;;;26.20;48.63;101619.81;5114107;28;19935;-52
2023/10/10 13:11:12;;;;;;;;;;;;;;;26.32;48.55;101617.81;5112885;28;19908;-52
2023/10/10 13:13:45;;;;;;;;;;;;;;;26.48;46.39;101621.78;5114146;28;19912;-52
2023/10/10 13:16:37;;;;;;;;;;;;;;;26.66;43.90;101622.25;5113864;28;20409;-53
2023/10/10 13:19:06;;;;;;;;;;;;;;;26.75;44.42;101622.03;5113232;28;20002;-52
2023/10/10 13:21:31;;;;;;;;;;;;;;;26.91;45.16;101631.31;5113431;28;19916;-52
2023/10/10 13:23:56;;;;;;;;;;;;;;;27.07;44.99;101625.59;5114012;28;20327;-53
2023/10/10 13:26:22;;;;;;;;;;;;;;;27.24;44.52;101626.03;5112717;28;19911;-53
2023/10/10 13:28:47;;;;;;;;;;;;;;;27.15;41.14;101625.41;5113796;28;19994;-51
2023/10/10 13:31:16;;;;;;;;;;;;;;;26.81;41.54;101627.16;5112648;28;19912;-53
2023/10/10 13:33:42;;;;;;;;;;;;;;;26.37;39.72;101623.84;5113727;28;19912;-50
2023/10/10 13:36:11;;;;;;;;;;;;;;;26.15;43.06;101621.72;5113463;28;20264;-52
2023/10/10 13:38:46;;;;;;;;;;;;;;;26.10;43.07;101613.03;5113070;28;19911;-52
2023/10/10 13:41:11;;;;;;;;;;;;;;;25.91;42.47;101621.34;5113502;28;19912;-52
2023/10/10 13:43:41;;;;;;;;;;;;;;;25.87;43.57;101617.00;5113768;28;19919;-53
2023/10/10 13:46:06;;;;;;;;;;;;;;;25.94;45.07;101613.34;5112842;28;19911;-52
2023/10/10 13:48:31;;;;;;;;;;;;;;;25.88;44.73;101613.47;5113142;28;20008;-52
2023/10/10 13:50:59;;;;;;;;;;;;;;;25.71;44.78;101607.72;5113692;28;20002;-53
2023/10/10 13:53:24;;;;;;;;;;;;;;;25.81;46.83;101601.34;5112409;28;20310;-53
2023/10/10 13:55:50;;;;;;;;;;;;;;;25.96;44.33;101611.53;5113672;28;19920;-52
2023/10/10 13:58:16;;;;;;;;;;;;;;;25.89;44.91;101602.00;5112903;28;19955;-52
2023/10/10 14:00:55;;;;;;;;;;;;;;;25.70;47.23;101598.03;5112792;28;19915;-50
2023/10/10 14:03:28;;;;;;;;;;;;;;;25.44;48.18;101596.84;5113150;28;20011;-52
2023/10/10 14:06:00;;;;;;;;;;;;;;;25.18;48.46;101592.91;5113710;28;19912;-52
2023/10/10 14:08:26;;;;;;;;;;;;;;;24.82;48.73;101587.44;5112493;28;19912;-52
2023/10/10 14:10:53;;;;;;;;;;;;;;;24.51;47.84;101590.56;5113242;28;19912;-51
2023/10/10 14:13:19;;;;;;;;;;;;;;;24.15;48.03;101585.88;5112419;28;19912;-50
2023/10/10 14:15:57;;;;;;;;;;;;;;;23.89;49.68;101578.34;5113252;28;20374;-52
2023/10/10 14:18:23;;;;;;;;;;;;;;;23.72;50.48;101588.22;5113142;28;19911;-52
2023/10/10 14:20:50;;;;;;;;;;;;;;;23.59;52.09;101584.88;5112561;28;19912;-52
2023/10/10 14:23:19;;;;;;;;;;;;;;;23.50;52.09;101580.63;5112908;28;19953;-52
2023/10/10 14:25:49;;;;;;;;;;;;;;;23.41;50.73;101578.97;5113249;28;19911;-53
2023/10/10 14:28:18;;;;;;;;;;;;;;;23.24;50.15;101573.91;5111894;28;19908;-52
2023/10/10 14:30:49;;;;;;;;;;;;;;;23.14;49.81;101577.50;5113157;28;19912;-51
2023/10/10 14:33:17;;;;;;;;;;;;;;;23.10;52.44;101563.53;5112996;28;20012;-52
2023/10/10 14:35:44;;;;;;;;;;;;;;;23.01;50.46;101568.88;5112268;28;19930;-53
2023/10/10 14:38:12;;;;;;;;;;;;;;;22.97;51.07;101559.25;5116352;28;19915;-52
2023/10/10 14:40:38;;;;;;;;;;;;;;;22.94;51.77;101554.91;5116612;28;19911;-53
2023/10/10 14:43:06;;;;;;;;;;;;;;;22.90;47.39;101552.34;5115767;28;19919;-52
2023/10/10 14:45:32;;;;;;;;;;;;;;;22.86;47.09;101546.25;5116461;28;19919;-52
2023/10/10 14:47:58;;;;;;;;;;;;;;;22.85;47.82;101542.75;5116772;28;19911;-52
2023/10/10 14:50:24;;;;;;;;;;;;;;;22.93;48.54;101536.53;5115641;28;19912;-52
2023/10/10 14:52:53;;;;;;;;;;;;;;;23.02;48.75;101541.69;5116730;28;19912;-52
2023/10/10 14:55:25;;;;;;;;;;;;;;;23.07;48.42;101537.25;5116213;28;19916;-51
2023/10/10 14:57:54;;;;;;;;;;;;;;;23.06;48.81;101539.91;5115542;28;19916;-52
2023/10/10 15:00:21;;;;;;;;;;;;;;;23.06;49.68;101532.00;5116188;28;20393;-52
2023/10/10 15:02:47;;;;;;;;;;;;;;;23.06;48.81;101532.00;5115640;28;20416;-51
2023/10/10 15:05:14;;;;;;;;;;;;;;;23.01;47.97;101538.19;5116269;28;19911;-52
2023/10/10 15:07:41;;;;;;;;;;;;;;;22.94;49.08;101536.50;5116437;28;19911;-54
2023/10/10 15:10:07;;;;;;;;;;;;;;;22.81;48.25;101522.66;5115510;28;19912;-52
2023/10/10 15:12:33;;;;;;;;;;;;;;;22.68;48.58;101529.81;5116115;28;19922;-52